• Join FlightAware (Why Join?)
  • Login
  • US Flag 
05:56PM EST


 

Airport Tracker/Info


-or-


 

Live Flight TrackerFlight Track Log ✈ UCA3596 ✈ 26-Jun-2014 ✈ KEWR - KBGM

Flight Track Log - Related Links

Times and Time Zones

All times are in EDT time to prevent confusion due to time zone crossing. See the UCA3596 flight status page for this flight to view local times or setup timezone preferences in your user account.

Time Position Orientation Groundspeed Altitude Reporting Facility
EDT Latitude Longitude Course Direction KTS MPH feet Rate Location/Type
12:40PM 40.7000 -74.1500 37° Northeast 129 148 1,200  Level New York TRACON
12:41PM 40.7333 -74.1167 37° Northeast 141 162 2,900 1,620 Climbing New York TRACON
12:43PM 40.7833 -74.2000 308° West 151 174 6,200 1,560 Climbing New York TRACON
12:44PM 40.8000 -74.2500 294° West 157 181 7,600 1,260 Climbing New York TRACON
12:45PM 40.8333 -74.3000 311° West 177 204 8,800 1,140 Climbing New York TRACON
12:46PM 40.8667 -74.3333 323° Northwest 195 224 9,900 1,200 Climbing New York TRACON
12:47PM 40.9167 -74.3500 346° North 195 224 11,200 1,080 Climbing New York TRACON
12:48PM 40.9833 -74.3833 339° North 200 230 12,100 420 Climbing New York TRACON
12:49PM 41.0333 -74.4000 346° North 230 265 12,100 -60 Level New York TRACON
12:50PM 41.1044 -74.4417 336° Northwest 263 303 12,000 -60 Descending New York Center
12:52PM 41.1686 -74.4292 North  Level FlightAware Approximate
12:52PM 41.2400 -74.5097 North 258 297 12,000  Level New York Center
12:53PM 41.3136 -74.5442 341° North 263 303 12,000  Level New York Center
12:54PM 41.3772 -74.5781 338° Northwest 270 311 12,000 -60 Level New York Center
12:55PM 41.4333 -74.6422 319° Northwest 253 291 11,900 -60 Descending New York Center
12:56PM 41.4706 -74.7192 303° West 247 284 11,900  Level New York Center
12:57PM 41.5094 -74.7961 304° West 253 291 11,900  Level New York Center
12:58PM 41.5467 -74.8706 304° West 253 291 11,900  Level New York Center
12:59PM 41.5853 -74.9506 303° West 258 297 12,000  Climbing New York Center
01:01PM 41.6592 -75.0994 303° West 258 297 12,000  Level New York Center
01:02PM 41.6997 -75.1856 302° West 258 297 12,000  Level New York Center
01:03PM 41.7383 -75.2631 304° West 253 291 12,000  Level New York Center
01:04PM 41.7731 -75.3406 301° West 253 291 12,000  Level New York Center
01:05PM 41.8097 -75.4097 305° West 253 291 12,100 -360 Climbing New York Center
01:06PM 41.8461 -75.4931 300° West 260 299 11,300 -960 Descending New York Center
01:08PM 41.9239 -75.6769 299° West 271 312 9,200 -1,080 Descending New York Center
01:09PM 41.9497 -75.7625 292° West 259 298 8,100 -1,380 Descending New York Center
01:10PM 41.9908 -75.8242 312° West 247 284 6,600 -1,320 Descending New York Center
01:12PM 42.0861 -75.8792 306° West 194 223 4,200 -1,140 Descending New York Center
01:13PM 42.1244 -75.9100 329° Northwest 174 200 3,300 -840 Descending New York Center
01:14PM 42.1567 -75.9375 328° Northwest 153 176 2,600 1,860 Descending New York Center
01:16PM 42.2225 -75.9989 258° West 137 158 9,000 2,100 Climbing New York Center
01:17PM 42.2525 -76.0292 323° Northwest 137 158 9,000  Level New York Center
01:18PM 42.2822 -76.0597 323° Northwest 137 158 9,000  Level New York Center
01:19PM 42.3061 -76.0839 323° Northwest 137 158 9,000  Level New York Center